Time;durP1;ratioP1;P1;durP2;ratioP2;P2;SDS_P1;SDS_P2;PMS_P1;PMS_P2;Temp;Humidity;BMP_temperature;BMP_pressure;BME280_temperature;BME280_humidity;BME280_pressure;Samples;Min_cycle;Max_cycle;Signal;HPM_P1;HPM_P2
2021/07/27 00:00:30;;;;;;;7.87;3.00;;;22.30;66.40;;;;;;4954942;29;20649;-47
2021/07/27 00:02:56;;;;;;;3.80;3.23;;;22.40;66.30;;;;;;4955615;28;20453;-47
2021/07/27 00:05:21;;;;;;;3.37;3.07;;;22.40;66.00;;;;;;4955474;29;20531;-46
2021/07/27 00:07:47;;;;;;;2.87;2.63;;;22.30;65.90;;;;;;4954853;29;20203;-46
2021/07/27 00:10:13;;;;;;;4.10;3.70;;;22.20;66.20;;;;;;4954854;28;20700;-52
2021/07/27 00:12:38;;;;;;;5.90;3.10;;;22.20;66.20;;;;;;4954423;28;20206;-50
2021/07/27 00:15:05;;;;;;;6.40;2.53;;;22.30;66.10;;;;;;4955119;29;20223;-49
2021/07/27 00:17:30;;;;;;;3.90;3.60;;;22.20;66.10;;;;;;4954682;29;20235;-46
2021/07/27 00:19:56;;;;;;;3.83;3.20;;;22.00;66.60;;;;;;4951725;29;20429;-52
2021/07/27 00:22:22;;;;;;;5.10;3.87;;;22.10;66.70;;;;;;4933137;29;20207;-52
2021/07/27 00:24:51;;;;;;;6.13;3.90;;;22.10;66.40;;;;;;4935606;29;20518;-51
2021/07/27 00:27:18;;;;;;;5.07;3.30;;;22.10;66.20;;;;;;4935239;29;20436;-52
2021/07/27 00:29:43;;;;;;;5.63;3.47;;;22.20;66.10;;;;;;4935497;29;20428;-51
2021/07/27 00:32:09;;;;;;;4.13;3.73;;;22.20;66.00;;;;;;4951343;28;20549;-50
2021/07/27 00:34:34;;;;;;;3.67;3.23;;;22.00;66.40;;;;;;4954781;28;20235;-52
2021/07/27 00:37:00;;;;;;;4.57;3.33;;;21.90;66.60;;;;;;4954408;29;20653;-51
2021/07/27 00:39:26;;;;;;;4.40;3.73;;;21.80;66.90;;;;;;4954251;29;20200;-51
2021/07/27 00:41:52;;;;;;;4.20;3.43;;;21.70;67.40;;;;;;4954242;29;20203;-51
2021/07/27 00:44:17;;;;;;;6.13;3.97;;;21.50;68.00;;;;;;4954674;28;20420;-50
2021/07/27 00:46:43;;;;;;;5.70;3.93;;;21.60;68.20;;;;;;4954241;29;20199;-52
2021/07/27 00:49:09;;;;;;;4.33;3.30;;;21.60;67.70;;;;;;4952465;29;20192;-48
2021/07/27 00:51:34;;;;;;;6.43;3.40;;;21.80;67.40;;;;;;4953971;29;20667;-50
2021/07/27 00:54:00;;;;;;;6.00;3.90;;;21.90;67.00;;;;;;4954600;29;20199;-51
2021/07/27 00:56:26;;;;;;;5.10;4.00;;;21.90;66.50;;;;;;4953966;29;20188;-52
2021/07/27 00:58:53;;;;;;;5.03;3.80;;;22.00;66.40;;;;;;4953922;28;20431;-49
2021/07/27 01:01:19;;;;;;;5.50;3.90;;;22.00;66.20;;;;;;4953918;29;20216;-51
2021/07/27 01:03:45;;;;;;;7.93;4.13;;;22.10;66.10;;;;;;4954545;29;20432;-50
2021/07/27 01:06:11;;;;;;;4.13;3.50;;;22.10;66.10;;;;;;4953830;29;20424;-51
2021/07/27 01:08:38;;;;;;;4.40;4.10;;;22.10;66.00;;;;;;4953543;28;20191;-53
2021/07/27 01:11:04;;;;;;;4.13;3.73;;;22.10;65.90;;;;;;4953693;28;20259;-46
2021/07/27 01:13:30;;;;;;;5.63;3.50;;;22.10;65.80;;;;;;4953231;29;20963;-47
2021/07/27 01:16:01;;;;;;;4.20;3.67;;;22.10;65.80;;;;;;4952632;29;20282;-47
2021/07/27 01:18:30;;;;;;;4.50;4.10;;;21.80;66.30;;;;;;4953345;28;20688;-47
2021/07/27 01:39:55;;;;;;;5.07;4.67;;;21.00;69.20;;;;;;4953062;28;20436;-48
2021/07/27 01:42:20;;;;;;;7.83;4.13;;;20.60;70.50;;;;;;4951958;29;20199;-46
2021/07/27 01:44:47;;;;;;;7.40;5.27;;;20.40;71.40;;;;;;4953755;29;20435;-48
2021/07/27 01:47:16;;;;;;;6.13;4.50;;;20.50;71.40;;;;;;4953076;29;20676;-46
2021/07/27 01:49:42;;;;;;;4.77;4.27;;;20.50;71.40;;;;;;4941991;29;20459;-47
2021/07/27 01:52:15;;;;;;;6.90;4.33;;;20.50;71.40;;;;;;4952830;29;20491;-45
2021/07/27 01:54:41;;;;;;;4.80;4.40;;;20.30;72.30;;;;;;4953684;28;20440;-49
2021/07/27 01:57:15;;;;;;;7.13;4.67;;;20.10;73.80;;;;;;4952888;29;20514;-46
2021/07/27 01:59:41;;;;;;;6.47;5.67;;;20.30;73.40;;;;;;4951740;28;20191;-45
2021/07/27 02:02:11;;;;;;;5.23;4.73;;;20.40;72.50;;;;;;4953232;29;20419;-48
2021/07/27 02:04:36;;;;;;;5.40;4.90;;;20.30;72.90;;;;;;4953731;29;20200;-48
2021/07/27 02:07:02;;;;;;;6.93;4.60;;;20.40;72.90;;;;;;4951446;29;20427;-46
2021/07/27 02:09:37;;;;;;;5.83;4.87;;;20.50;72.50;;;;;;4953222;29;20192;-46
2021/07/27 02:12:03;;;;;;;3.93;3.53;;;20.70;71.90;;;;;;4952833;29;20235;-49
2021/07/27 02:15:13;;;;;;;4.73;4.30;;;20.90;71.00;;;;;;4953594;28;20434;-47
2021/07/27 02:17:14;;;;;;;6.50;4.80;;;21.10;70.50;;;;;;4940355;29;20232;-52
2021/07/27 02:19:40;;;;;;;8.37;4.50;;;21.20;69.80;;;;;;4951729;29;20832;-48
2021/07/27 02:22:05;;;;;;;5.80;5.00;;;21.30;70.10;;;;;;4933825;29;20578;-46
2021/07/27 02:24:31;;;;;;;5.97;4.90;;;21.40;69.00;;;;;;4934083;29;20200;-48
2021/07/27 02:26:57;;;;;;;5.40;4.27;;;21.40;68.50;;;;;;4933715;29;20192;-51
2021/07/27 02:29:22;;;;;;;4.80;4.30;;;21.40;68.00;;;;;;4933732;29;20205;-47
2021/07/27 02:31:48;;;;;;;5.30;4.80;;;21.40;68.00;;;;;;4946625;28;20592;-46
2021/07/27 02:34:13;;;;;;;6.43;4.50;;;21.40;68.50;;;;;;4952062;28;20200;-48
2021/07/27 02:36:39;;;;;;;5.37;4.50;;;21.30;68.50;;;;;;4952812;29;20196;-47
2021/07/27 02:39:06;;;;;;;5.37;4.53;;;21.30;68.50;;;;;;4952635;28;20230;-49
2021/07/27 02:41:33;;;;;;;4.83;4.33;;;21.40;68.40;;;;;;4952632;29;20196;-47
2021/07/27 02:44:00;;;;;;;5.00;4.10;;;21.40;67.90;;;;;;4953033;28;20822;-47
2021/07/27 02:46:26;;;;;;;7.27;4.70;;;21.50;67.50;;;;;;4954529;28;20424;-46
2021/07/27 02:48:52;;;;;;;4.67;4.27;;;21.50;67.40;;;;;;4956431;29;20432;-46
2021/07/27 02:51:17;;;;;;;5.13;4.20;;;21.50;67.10;;;;;;4956165;29;20227;-47
2021/07/27 02:53:43;;;;;;;6.80;5.00;;;21.50;67.10;;;;;;4956693;29;20203;-48
2021/07/27 02:56:09;;;;;;;6.40;4.60;;;21.40;67.20;;;;;;4956049;28;20208;-50
2021/07/27 02:58:34;;;;;;;4.87;4.20;;;21.40;67.20;;;;;;4956253;28;20492;-47
2021/07/27 03:01:01;;;;;;;5.20;4.70;;;21.20;67.00;;;;;;4954616;28;20296;-46
2021/07/27 03:03:27;;;;;;;5.90;4.80;;;21.20;67.40;;;;;;4956287;29;20200;-49
2021/07/27 03:06:00;;;;;;;5.20;4.33;;;21.20;67.40;;;;;;4955923;28;20998;-46
2021/07/27 03:08:45;;;;;;;6.70;4.10;;;21.20;67.50;;;;;;4956009;29;20432;-46
2021/07/27 03:11:11;;;;;;;5.57;5.00;;;21.10;67.70;;;;;;4955814;29;20486;-49
2021/07/27 03:13:37;;;;;;;5.07;4.67;;;21.10;67.80;;;;;;4956169;29;20958;-46
2021/07/27 03:16:02;;;;;;;4.30;3.80;;;21.00;68.00;;;;;;4955739;29;20676;-46
2021/07/27 03:18:28;;;;;;;6.00;4.87;;;20.90;68.10;;;;;;4955812;28;20267;-46
2021/07/27 03:20:54;;;;;;;4.00;3.60;;;21.00;68.00;;;;;;4945205;29;20230;-48
2021/07/27 03:23:21;;;;;;;4.20;3.90;;;21.10;67.80;;;;;;4936959;29;20196;-50
2021/07/27 03:25:47;;;;;;;5.60;4.37;;;21.10;67.70;;;;;;4935470;29;20704;-50
2021/07/27 03:28:18;;;;;;;4.87;4.20;;;20.80;68.40;;;;;;4936017;29;20515;-49
2021/07/27 03:30:44;;;;;;;4.63;4.03;;;20.90;68.70;;;;;;4941327;28;20287;-46
2021/07/27 03:33:09;;;;;;;5.13;4.63;;;21.00;68.20;;;;;;4955902;29;20447;-46
2021/07/27 03:35:35;;;;;;;4.83;4.43;;;21.10;68.00;;;;;;4955123;29;20192;-50
2021/07/27 03:38:04;;;;;;;5.83;4.43;;;21.10;67.70;;;;;;4955639;29;20250;-50
2021/07/27 03:40:30;;;;;;;4.47;4.07;;;21.20;67.40;;;;;;4955517;29;20208;-51
2021/07/27 03:42:56;;;;;;;4.70;4.33;;;21.20;67.20;;;;;;4955713;29;20786;-46
2021/07/27 03:45:21;;;;;;;4.83;4.30;;;21.00;67.40;;;;;;4955708;29;20666;-47
2021/07/27 03:47:47;;;;;;;6.33;5.23;;;21.00;67.70;;;;;;4954818;29;20192;-51
2021/07/27 03:50:12;;;;;;;5.80;4.70;;;20.90;67.60;;;;;;4956056;28;20206;-52
2021/07/27 03:52:38;;;;;;;5.00;4.50;;;20.80;67.70;;;;;;4953264;29;20231;-46
2021/07/27 03:55:04;;;;;;;6.30;4.40;;;20.60;68.40;;;;;;4955639;29;20192;-46
2021/07/27 03:57:30;;;;;;;4.97;4.37;;;20.50;69.20;;;;;;4953889;28;20203;-49
2021/07/27 03:59:56;;;;;;;5.30;4.60;;;20.50;69.00;;;;;;4955190;28;20440;-50
2021/07/27 04:02:22;;;;;;;7.47;4.40;;;20.60;68.90;;;;;;4954757;29;20295;-51
2021/07/27 04:04:48;;;;;;;5.10;4.43;;;20.50;68.80;;;;;;4955469;29;20259;-50
2021/07/27 04:07:17;;;;;;;4.40;4.07;;;20.50;68.90;;;;;;4954797;29;20443;-51
2021/07/27 04:09:42;;;;;;;5.87;4.50;;;20.40;69.30;;;;;;4954772;29;20219;-52
2021/07/27 04:12:08;;;;;;;5.03;4.60;;;20.40;69.40;;;;;;4954551;29;20983;-51
2021/07/27 04:14:35;;;;;;;8.53;4.10;;;20.40;69.40;;;;;;4955382;28;20584;-48
2021/07/27 04:17:00;;;;;;;6.10;4.13;;;20.50;69.40;;;;;;4954551;28;20196;-50
2021/07/27 04:19:26;;;;;;;6.97;4.10;;;20.50;69.00;;;;;;4953011;29;20424;-51
2021/07/27 04:21:51;;;;;;;4.80;4.03;;;20.40;69.60;;;;;;4936064;29;20680;-51
2021/07/27 04:24:18;;;;;;;4.93;4.47;;;20.40;69.90;;;;;;4935867;29;20239;-47
2021/07/27 04:26:47;;;;;;;4.57;4.10;;;20.50;70.00;;;;;;4935409;29;20205;-47
2021/07/27 04:29:22;;;;;;;4.10;3.63;;;20.50;70.00;;;;;;4935700;29;20796;-51
2021/07/27 04:31:50;;;;;;;5.07;4.57;;;20.50;70.30;;;;;;4948402;29;20522;-51
2021/07/27 04:34:16;;;;;;;4.53;4.13;;;20.40;70.60;;;;;;4954952;28;20427;-51
2021/07/27 04:36:42;;;;;;;5.77;4.70;;;20.10;71.20;;;;;;4954459;29;20432;-46
2021/07/27 04:39:07;;;;;;;5.07;4.57;;;20.10;72.20;;;;;;4954292;29;20424;-48
2021/07/27 04:41:36;;;;;;;7.57;4.73;;;20.20;71.90;;;;;;4954288;29;20199;-47
2021/07/27 04:44:03;;;;;;;4.93;4.53;;;20.30;72.00;;;;;;4954667;29;20204;-48
2021/07/27 04:46:29;;;;;;;4.50;4.10;;;20.20;72.00;;;;;;4952643;29;20829;-47
2021/07/27 04:48:54;;;;;;;6.23;4.47;;;20.10;72.30;;;;;;4953972;29;20430;-49
2021/07/27 04:51:20;;;;;;;5.17;4.53;;;20.10;72.30;;;;;;4954073;28;20224;-47
2021/07/27 04:53:48;;;;;;;5.00;3.73;;;20.20;72.10;;;;;;4954690;28;20675;-47
2021/07/27 04:56:13;;;;;;;4.93;4.07;;;20.20;72.40;;;;;;4954207;28;20200;-48
2021/07/27 04:58:39;;;;;;;4.13;3.83;;;20.30;72.40;;;;;;4953812;28;20431;-51
2021/07/27 05:01:05;;;;;;;4.73;4.33;;;20.50;71.70;;;;;;4953723;29;20196;-46
2021/07/27 05:03:31;;;;;;;4.90;4.47;;;20.60;71.10;;;;;;4954568;28;20225;-49
2021/07/27 05:05:57;;;;;;;5.30;3.97;;;20.80;70.80;;;;;;4953926;29;20192;-51
2021/07/27 05:08:22;;;;;;;4.97;4.57;;;20.90;70.30;;;;;;4953501;28;20718;-46
2021/07/27 05:10:48;;;;;;;4.90;4.50;;;21.00;69.90;;;;;;4953650;29;20519;-49
2021/07/27 05:13:14;;;;;;;5.20;4.70;;;21.00;70.00;;;;;;4952675;28;20192;-48
2021/07/27 05:15:40;;;;;;;5.40;4.50;;;21.00;69.70;;;;;;4953578;29;20204;-51
2021/07/27 05:18:05;;;;;;;4.53;4.13;;;21.00;70.40;;;;;;4953127;29;20239;-49
2021/07/27 05:20:31;;;;;;;5.77;5.00;;;21.00;70.50;;;;;;4946117;28;20433;-47
2021/07/27 05:22:57;;;;;;;7.47;4.67;;;21.10;70.20;;;;;;4935070;29;20647;-49
2021/07/27 05:25:23;;;;;;;4.97;4.13;;;21.20;70.00;;;;;;4935037;29;20248;-49
2021/07/27 05:27:49;;;;;;;4.80;4.27;;;21.40;69.80;;;;;;4933708;29;20197;-51
2021/07/27 05:30:16;;;;;;;5.10;4.13;;;21.40;69.60;;;;;;4936062;29;20780;-47
2021/07/27 05:32:43;;;;;;;4.10;3.80;;;21.30;69.90;;;;;;4953439;28;20231;-52
2021/07/27 05:35:10;;;;;;;4.03;3.73;;;21.20;70.40;;;;;;4953755;29;20488;-46
2021/07/27 05:37:37;;;;;;;9.93;5.10;;;21.10;71.70;;;;;;4953014;29;20439;-52
2021/07/27 05:40:03;;;;;;;6.47;4.20;;;21.20;71.80;;;;;;4952158;29;20483;-47
2021/07/27 05:42:29;;;;;;;4.50;4.10;;;21.10;71.70;;;;;;4953386;28;20440;-51
2021/07/27 05:44:54;;;;;;;5.40;4.90;;;21.10;72.10;;;;;;4954023;29;20431;-49
2021/07/27 05:47:20;;;;;;;4.00;3.70;;;21.20;72.20;;;;;;4953017;29;20200;-46
2021/07/27 05:49:46;;;;;;;5.10;4.70;;;21.40;71.80;;;;;;4953298;28;20199;-49
2021/07/27 05:52:12;;;;;;;5.07;4.47;;;21.50;71.50;;;;;;4953229;29;20227;-51
2021/07/27 05:54:38;;;;;;;5.20;4.70;;;21.60;71.30;;;;;;4953889;28;20436;-49
2021/07/27 05:57:04;;;;;;;6.53;4.70;;;21.70;71.30;;;;;;4952842;28;20558;-46
2021/07/27 05:59:30;;;;;;;4.80;4.40;;;21.70;70.90;;;;;;4953151;28;20439;-50
2021/07/27 06:01:55;;;;;;;6.80;4.73;;;21.80;70.70;;;;;;4952922;28;20192;-50
2021/07/27 06:04:21;;;;;;;4.90;4.50;;;21.80;71.10;;;;;;4953578;29;20199;-51
2021/07/27 06:06:47;;;;;;;5.10;4.60;;;21.80;71.60;;;;;;4951285;28;20195;-49
2021/07/27 06:09:14;;;;;;;7.43;4.43;;;21.90;71.30;;;;;;4953250;28;20538;-50
2021/07/27 06:11:40;;;;;;;5.93;4.37;;;22.20;70.80;;;;;;4952809;28;20294;-50
2021/07/27 06:14:09;;;;;;;5.53;5.00;;;22.40;70.30;;;;;;4953499;29;20427;-50
2021/07/27 06:16:37;;;;;;;5.70;5.20;;;22.60;70.40;;;;;;4952627;28;20495;-51
2021/07/27 06:19:02;;;;;;;8.53;5.07;;;22.60;69.20;;;;;;4952844;29;20912;-51
2021/07/27 06:21:28;;;;;;;6.70;4.60;;;22.90;69.90;;;;;;4939756;28;20519;-47
2021/07/27 06:23:54;;;;;;;4.93;4.40;;;23.20;68.20;;;;;;4938172;29;20224;-48
2021/07/27 06:26:19;;;;;;;6.67;5.00;;;23.40;67.80;;;;;;4937271;29;20657;-50
2021/07/27 06:28:45;;;;;;;6.10;5.23;;;23.40;66.60;;;;;;4937847;29;20203;-48
2021/07/27 06:31:11;;;;;;;8.57;5.30;;;23.10;66.50;;;;;;4944688;29;20226;-53
2021/07/27 06:33:41;;;;;;;6.90;4.33;;;23.10;67.30;;;;;;4956953;28;20254;-46
2021/07/27 06:36:08;;;;;;;4.50;4.10;;;23.10;67.90;;;;;;4956403;29;21025;-46
2021/07/27 06:38:34;;;;;;;5.77;5.00;;;23.30;67.80;;;;;;4956619;29;20435;-51
2021/07/27 06:41:01;;;;;;;6.23;5.00;;;23.50;66.70;;;;;;4956448;29;20474;-49
2021/07/27 06:43:27;;;;;;;5.37;4.97;;;23.60;67.10;;;;;;4956739;29;20431;-49
2021/07/27 06:45:53;;;;;;;5.43;4.93;;;23.80;66.70;;;;;;4956231;28;20466;-49
2021/07/27 06:48:23;;;;;;;5.40;4.90;;;24.00;65.50;;;;;;4956323;28;20415;-48
2021/07/27 06:50:50;;;;;;;5.13;4.57;;;24.10;64.80;;;;;;4956024;29;20502;-51
2021/07/27 06:53:15;;;;;;;5.80;4.30;;;24.10;64.00;;;;;;4956638;29;20469;-52
2021/07/27 06:55:41;;;;;;;5.73;4.70;;;24.20;63.60;;;;;;4956252;29;20431;-49
2021/07/27 06:58:06;;;;;;;4.90;4.10;;;24.10;63.70;;;;;;4954757;29;20211;-48
2021/07/27 07:00:32;;;;;;;5.10;4.70;;;24.20;63.80;;;;;;4956097;28;20219;-50
2021/07/27 07:02:58;;;;;;;5.43;4.77;;;24.30;63.00;;;;;;4956674;28;20237;-53
2021/07/27 07:05:23;;;;;;;4.87;4.33;;;24.20;62.00;;;;;;4956458;29;20286;-49
2021/07/27 07:07:49;;;;;;;5.07;4.57;;;24.20;62.70;;;;;;4955634;28;20339;-46
2021/07/27 07:10:14;;;;;;;5.00;4.50;;;24.30;63.50;;;;;;4956273;29;20200;-47
2021/07/27 07:12:40;;;;;;;6.63;4.97;;;24.50;62.90;;;;;;4955740;29;20227;-52
2021/07/27 07:15:06;;;;;;;5.10;4.60;;;24.40;62.10;;;;;;4956352;28;20204;-49
2021/07/27 07:17:32;;;;;;;5.93;5.13;;;24.50;63.30;;;;;;4955292;29;20258;-48
2021/07/27 07:19:57;;;;;;;6.00;4.40;;;24.30;62.60;;;;;;4952877;29;20428;-48
2021/07/27 07:22:24;;;;;;;5.10;4.63;;;24.30;63.90;;;;;;4936887;29;20192;-50
2021/07/27 07:24:50;;;;;;;5.50;4.63;;;24.60;64.30;;;;;;4935399;29;20244;-52
2021/07/27 07:27:15;;;;;;;5.20;4.80;;;24.50;61.80;;;;;;4936236;29;20433;-50
2021/07/27 07:29:41;;;;;;;7.10;4.80;;;24.60;62.30;;;;;;4936940;29;20240;-48
2021/07/27 07:32:07;;;;;;;5.23;4.83;;;24.90;61.10;;;;;;4951621;28;20638;-51
2021/07/27 07:34:33;;;;;;;5.97;4.40;;;25.10;60.60;;;;;;4956050;29;20192;-50
2021/07/27 07:36:59;;;;;;;5.30;4.80;;;25.20;61.80;;;;;;4938475;29;20435;-49
2021/07/27 07:39:26;;;;;;;19.53;5.03;;;25.40;59.60;;;;;;4955495;29;20195;-49
2021/07/27 07:41:51;;;;;;;6.90;4.57;;;25.80;59.40;;;;;;4954979;28;20462;-49
2021/07/27 07:44:17;;;;;;;4.60;4.20;;;26.10;59.60;;;;;;4955722;29;20443;-53
2021/07/27 07:46:42;;;;;;;5.73;5.10;;;26.40;57.60;;;;;;4955673;29;20559;-49
2021/07/27 07:49:08;;;;;;;6.47;5.40;;;26.70;56.40;;;;;;4955150;29;20195;-48
2021/07/27 07:51:35;;;;;;;4.90;4.50;;;26.70;55.80;;;;;;4953757;28;20638;-51
2021/07/27 07:54:01;;;;;;;5.80;5.30;;;26.60;56.20;;;;;;4955676;28;20672;-50
2021/07/27 07:56:27;;;;;;;5.30;4.80;;;26.70;56.80;;;;;;4954744;28;20440;-48
2021/07/27 07:58:52;;;;;;;5.33;4.87;;;26.70;56.60;;;;;;4955103;28;20428;-51
2021/07/27 08:01:18;;;;;;;6.20;4.83;;;26.80;56.70;;;;;;4955058;29;20219;-52
2021/07/27 08:03:44;;;;;;;4.47;4.00;;;26.70;55.90;;;;;;4955693;29;20545;-52
2021/07/27 08:06:09;;;;;;;4.70;4.30;;;26.50;56.80;;;;;;4955038;29;20207;-51
2021/07/27 08:08:39;;;;;;;4.93;4.47;;;26.90;57.40;;;;;;4954789;28;20204;-48
2021/07/27 08:11:06;;;;;;;5.30;4.63;;;27.20;55.40;;;;;;4954815;29;20605;-49
2021/07/27 08:13:31;;;;;;;4.87;4.40;;;27.60;54.50;;;;;;4955332;28;20856;-51
2021/07/27 08:15:57;;;;;;;4.37;4.07;;;27.90;55.00;;;;;;4954577;29;20443;-51
2021/07/27 08:18:23;;;;;;;7.33;4.83;;;28.00;53.70;;;;;;4953193;29;20236;-49
2021/07/27 08:20:48;;;;;;;5.27;4.23;;;28.30;53.50;;;;;;4944727;29;20982;-52
2021/07/27 08:23:14;;;;;;;5.23;4.73;;;28.40;51.90;;;;;;4936027;29;20208;-52
2021/07/27 08:25:40;;;;;;;5.33;4.47;;;28.60;51.40;;;;;;4935468;29;20588;-53
2021/07/27 08:28:05;;;;;;;5.73;5.00;;;28.70;52.00;;;;;;4935217;29;20228;-47
2021/07/27 08:30:31;;;;;;;4.70;4.30;;;28.80;50.80;;;;;;4938545;28;20609;-51
2021/07/27 08:32:56;;;;;;;4.73;4.27;;;28.90;50.10;;;;;;4955020;29;20196;-51
2021/07/27 08:35:23;;;;;;;5.00;4.60;;;29.00;49.80;;;;;;4954733;28;20204;-52
2021/07/27 08:37:50;;;;;;;5.23;4.73;;;29.00;49.70;;;;;;4953866;28;20196;-48
2021/07/27 08:40:17;;;;;;;5.13;4.63;;;29.00;50.10;;;;;;4954948;29;20923;-51
2021/07/27 08:42:44;;;;;;;4.40;4.10;;;28.90;48.90;;;;;;4954051;28;20463;-48
2021/07/27 08:45:12;;;;;;;5.37;4.97;;;28.90;50.00;;;;;;4952967;29;20440;-52
2021/07/27 08:47:41;;;;;;;4.70;4.30;;;28.50;48.10;;;;;;4953529;29;21581;-53
2021/07/27 08:50:09;;;;;;;5.00;4.60;;;28.70;48.90;;;;;;4954573;29;20510;-52
2021/07/27 08:52:34;;;;;;;5.07;4.67;;;28.80;50.50;;;;;;4953563;28;20860;-52
2021/07/27 08:55:00;;;;;;;5.50;4.67;;;29.00;49.90;;;;;;4954889;29;20423;-53
2021/07/27 08:57:26;;;;;;;5.80;5.30;;;29.10;50.30;;;;;;4953477;28;20203;-51
2021/07/27 08:59:53;;;;;;;5.60;5.10;;;29.30;48.00;;;;;;4954608;28;20200;-51
2021/07/27 09:02:28;;;;;;;4.63;4.23;;;29.50;47.10;;;;;;4953828;28;20196;-51
2021/07/27 09:05:11;;;;;;;8.10;4.90;;;29.60;46.70;;;;;;4954125;28;20790;-52
2021/07/27 09:07:37;;;;;;;6.80;4.57;;;29.80;46.80;;;;;;4953434;28;20795;-48
2021/07/27 09:10:22;;;;;;;5.30;4.80;;;29.80;46.80;;;;;;4952759;29;20935;-51
2021/07/27 09:12:56;;;;;;;5.17;4.67;;;30.10;47.10;;;;;;4953387;29;20573;-49
2021/07/27 09:15:27;;;;;;;4.87;4.47;;;30.20;47.20;;;;;;4954156;29;20450;-50
2021/07/27 09:17:57;;;;;;;5.90;5.33;;;30.40;46.70;;;;;;4953343;29;20468;-52
2021/07/27 09:20:29;;;;;;;5.20;4.70;;;30.50;46.40;;;;;;4941860;29;20912;-53
2021/07/27 09:22:55;;;;;;;8.23;5.50;;;30.60;46.50;;;;;;4953719;29;20988;-52
2021/07/27 09:25:28;;;;;;;6.77;4.40;;;30.70;44.40;;;;;;4954191;28;20510;-52
2021/07/27 09:28:10;;;;;;;5.60;5.10;;;30.80;45.90;;;;;;4953560;29;20191;-52
2021/07/27 09:30:37;;;;;;;5.37;4.97;;;30.90;44.70;;;;;;4953116;29;20444;-52
2021/07/27 09:33:05;;;;;;;10.47;4.97;;;30.90;44.80;;;;;;4954029;29;20432;-49
2021/07/27 09:35:31;;;;;;;5.10;4.60;;;31.10;43.10;;;;;;4953600;28;20491;-52
2021/07/27 09:38:03;;;;;;;5.50;5.00;;;31.20;42.50;;;;;;4952153;29;20569;-51
2021/07/27 09:40:29;;;;;;;5.50;5.00;;;31.30;42.40;;;;;;4953506;29;20432;-53
2021/07/27 09:42:56;;;;;;;6.10;5.07;;;31.50;42.70;;;;;;4953642;28;20538;-51
2021/07/27 09:45:21;;;;;;;5.57;5.17;;;31.60;42.60;;;;;;4953745;28;20629;-52
2021/07/27 09:47:48;;;;;;;5.13;4.63;;;31.60;41.30;;;;;;4952799;29;20419;-51
2021/07/27 09:50:17;;;;;;;5.83;5.33;;;31.50;41.20;;;;;;4954103;29;20267;-53
2021/07/27 09:52:44;;;;;;;5.80;5.20;;;31.20;41.20;;;;;;4953157;28;20491;-53
2021/07/27 09:55:11;;;;;;;5.60;4.70;;;31.10;42.20;;;;;;4953762;29;20461;-52
2021/07/27 09:57:37;;;;;;;5.83;5.33;;;31.40;41.30;;;;;;4952525;29;20879;-52
2021/07/27 10:00:03;;;;;;;6.93;6.23;;;31.60;41.20;;;;;;4953542;28;20438;-52
2021/07/27 10:02:31;;;;;;;9.03;5.73;;;31.90;41.30;;;;;;4952397;29;20250;-51
2021/07/27 10:04:57;;;;;;;5.47;4.97;;;32.10;41.10;;;;;;4952513;29;20526;-53
2021/07/27 10:07:29;;;;;;;6.00;4.80;;;32.30;42.10;;;;;;4952493;28;20435;-51
2021/07/27 10:10:09;;;;;;;5.07;4.70;;;32.40;40.40;;;;;;4953415;29;20427;-52
2021/07/27 10:12:36;;;;;;;5.17;4.67;;;32.60;39.40;;;;;;4953005;28;20534;-50
2021/07/27 10:15:13;;;;;;;4.77;4.37;;;32.90;40.40;;;;;;4953543;29;20515;-52
2021/07/27 10:17:52;;;;;;;5.73;5.23;;;32.90;39.10;;;;;;4952440;29;20478;-53
2021/07/27 10:20:26;;;;;;;6.90;5.90;;;33.00;38.40;;;;;;4947131;29;20445;-51
2021/07/27 10:22:52;;;;;;;5.13;4.63;;;33.30;37.80;;;;;;4933875;29;20470;-52
2021/07/27 10:25:17;;;;;;;5.57;5.07;;;33.40;37.90;;;;;;4934129;29;20519;-48
2021/07/27 10:27:52;;;;;;;5.10;4.60;;;33.00;38.40;;;;;;4933317;29;20736;-52
2021/07/27 10:30:30;;;;;;;4.97;4.60;;;33.30;38.20;;;;;;4934424;29;20198;-52
2021/07/27 10:32:56;;;;;;;5.07;4.57;;;33.60;36.60;;;;;;4953292;28;20541;-52
2021/07/27 10:35:34;;;;;;;5.63;5.07;;;33.80;36.90;;;;;;4953259;28;20494;-49
2021/07/27 10:38:14;;;;;;;5.30;4.20;;;34.00;36.60;;;;;;4953238;29;20544;-53
2021/07/27 10:40:42;;;;;;;7.37;5.43;;;34.00;36.90;;;;;;4952543;29;20939;-52
2021/07/27 10:43:08;;;;;;;5.43;4.93;;;34.10;36.80;;;;;;4953316;28;20840;-53
2021/07/27 10:45:34;;;;;;;5.43;4.93;;;34.20;37.10;;;;;;4952398;29;20578;-53
2021/07/27 10:47:59;;;;;;;4.93;4.50;;;34.40;36.50;;;;;;4952893;28;20200;-53
2021/07/27 10:50:27;;;;;;;5.40;4.40;;;34.40;37.00;;;;;;4952954;29;20444;-53
2021/07/27 10:53:18;;;;;;;4.83;4.43;;;34.30;35.90;;;;;;4952849;29;20687;-53
2021/07/27 10:55:50;;;;;;;5.07;4.67;;;34.50;36.10;;;;;;4950933;28;20440;-51
2021/07/27 10:58:17;;;;;;;5.17;4.70;;;34.50;36.00;;;;;;4952747;29;20431;-54
2021/07/27 11:00:42;;;;;;;5.47;5.07;;;34.50;35.50;;;;;;4952533;29;20821;-53
2021/07/27 11:03:08;;;;;;;6.60;5.30;;;34.60;35.20;;;;;;4953072;29;20447;-53
2021/07/27 11:05:34;;;;;;;5.33;4.93;;;34.50;34.80;;;;;;4952362;29;20192;-52
2021/07/27 11:08:00;;;;;;;4.80;4.50;;;34.60;34.40;;;;;;4955361;28;20322;-53
2021/07/27 11:10:27;;;;;;;5.60;5.07;;;34.70;35.10;;;;;;4956223;29;20519;-53
2021/07/27 11:12:56;;;;;;;4.73;4.40;;;34.80;34.80;;;;;;4955854;29;20228;-52
2021/07/27 11:15:24;;;;;;;5.07;4.67;;;34.80;34.10;;;;;;4956381;29;20447;-53
2021/07/27 11:18:00;;;;;;;9.17;4.83;;;34.80;34.60;;;;;;4955279;29;20464;-49
2021/07/27 11:20:34;;;;;;;5.43;4.93;;;34.80;34.90;;;;;;4944380;29;20819;-52
2021/07/27 11:23:01;;;;;;;8.63;4.83;;;34.90;35.30;;;;;;4954840;29;20490;-50
2021/07/27 11:25:28;;;;;;;5.30;4.90;;;34.70;33.80;;;;;;4955830;29;20434;-49
2021/07/27 11:27:55;;;;;;;5.23;4.73;;;34.10;33.60;;;;;;4955808;29;20431;-51
2021/07/27 11:30:22;;;;;;;5.30;4.90;;;34.20;34.60;;;;;;4956135;29;20510;-52
2021/07/27 11:32:49;;;;;;;4.60;4.27;;;34.40;33.70;;;;;;4955375;28;20585;-49
2021/07/27 11:35:24;;;;;;;5.17;4.67;;;34.50;34.60;;;;;;4956320;28;20439;-52
2021/07/27 11:38:23;;;;;;;5.33;4.93;;;34.50;34.80;;;;;;4954965;28;20443;-49
2021/07/27 11:40:50;;;;;;;5.00;4.60;;;34.60;34.50;;;;;;4944174;29;20467;-53
2021/07/27 11:43:18;;;;;;;5.20;4.70;;;34.70;33.50;;;;;;4956041;28;20436;-49
2021/07/27 11:45:45;;;;;;;5.30;4.90;;;34.90;33.40;;;;;;4955063;29;20431;-47
2021/07/27 11:48:11;;;;;;;5.20;4.60;;;35.10;33.70;;;;;;4955364;28;20513;-52
2021/07/27 11:50:39;;;;;;;5.40;5.00;;;34.80;33.10;;;;;;4953366;29;20432;-48
2021/07/27 11:53:09;;;;;;;5.13;4.73;;;34.80;35.10;;;;;;4955881;28;20587;-48
2021/07/27 11:55:40;;;;;;;5.07;4.67;;;34.70;35.30;;;;;;4954917;29;20898;-47
2021/07/27 11:58:07;;;;;;;5.10;4.53;;;34.70;34.80;;;;;;4955305;28;20442;-49
2021/07/27 12:00:35;;;;;;;6.37;5.70;;;34.50;35.50;;;;;;4955027;29;20575;-48
2021/07/27 12:03:03;;;;;;;6.70;5.50;;;34.50;34.40;;;;;;4955238;29;20436;-49
2021/07/27 12:05:30;;;;;;;5.73;5.13;;;34.60;34.20;;;;;;4955239;29;20427;-51
2021/07/27 12:07:56;;;;;;;4.80;4.40;;;34.50;33.90;;;;;;4955001;28;20451;-48
2021/07/27 12:10:22;;;;;;;6.07;5.17;;;34.60;35.00;;;;;;4955654;28;20436;-48
2021/07/27 12:12:47;;;;;;;5.00;4.67;;;34.40;34.20;;;;;;4954621;29;20223;-49
2021/07/27 12:15:13;;;;;;;5.17;4.67;;;34.30;34.40;;;;;;4953756;29;20188;-49
2021/07/27 12:17:40;;;;;;;5.47;4.97;;;34.40;35.50;;;;;;4953883;28;20240;-49
2021/07/27 12:20:07;;;;;;;4.07;3.77;;;34.50;35.90;;;;;;4950188;29;20196;-49
2021/07/27 12:22:33;;;;;;;4.67;4.27;;;34.50;35.20;;;;;;4935133;29;20500;-48
2021/07/27 12:24:58;;;;;;;6.43;4.90;;;34.40;34.70;;;;;;4936156;29;20432;-48
2021/07/27 12:27:24;;;;;;;4.10;3.80;;;34.20;34.60;;;;;;4935114;29;20201;-49
2021/07/27 12:29:49;;;;;;;5.20;4.80;;;34.00;34.90;;;;;;4935928;29;20203;-47
2021/07/27 12:32:15;;;;;;;6.87;4.20;;;33.80;35.00;;;;;;4952849;29;20259;-48
2021/07/27 12:34:40;;;;;;;5.77;5.23;;;33.60;33.30;;;;;;4955023;29;20231;-48
2021/07/27 12:37:09;;;;;;;4.90;4.50;;;33.30;34.00;;;;;;4954028;29;20198;-49
2021/07/27 12:39:35;;;;;;;4.70;4.30;;;33.60;34.20;;;;;;4954730;29;20206;-48
2021/07/27 12:42:00;;;;;;;4.57;4.17;;;33.50;34.20;;;;;;4952713;28;20416;-49
2021/07/27 12:44:26;;;;;;;4.57;4.23;;;33.60;34.30;;;;;;4954475;29;20191;-50
2021/07/27 12:46:51;;;;;;;7.60;4.37;;;33.60;34.40;;;;;;4953853;28;20254;-48
2021/07/27 12:49:17;;;;;;;4.10;3.80;;;33.50;34.10;;;;;;4954638;29;20199;-50
2021/07/27 12:51:46;;;;;;;4.37;4.07;;;33.10;34.50;;;;;;4954102;28;20270;-48
2021/07/27 12:54:12;;;;;;;4.83;4.40;;;32.70;34.60;;;;;;4954847;29;20427;-49
2021/07/27 12:56:38;;;;;;;4.80;4.30;;;31.90;35.60;;;;;;4954007;29;20943;-47
2021/07/27 12:59:10;;;;;;;6.23;4.20;;;32.00;36.30;;;;;;4954065;28;20428;-48
2021/07/27 13:01:36;;;;;;;5.13;4.73;;;32.00;37.20;;;;;;4953495;28;20512;-48
2021/07/27 13:04:02;;;;;;;7.50;4.73;;;31.90;36.60;;;;;;4954395;29;20416;-47
2021/07/27 13:06:28;;;;;;;4.40;4.00;;;32.20;36.40;;;;;;4953894;29;20533;-49